• Join FlightAware (Why Join?)
  • Login
  • US Flag 
11:14PM EDT


 

Airport Tracker/Info


-or-


 

Live Flight TrackerFlight Track Log ✈ NASA817 ✈ 07-Mar-2013 ✈ KPMD - KPMD

Flight Track Log - Related Links

Times and Time Zones

All times are in EST time to prevent confusion due to time zone crossing. See the NASA817 flight status page for this flight to view local times or setup timezone preferences in your user account.

Time Position Orientation Groundspeed Altitude Reporting Facility
EST Latitude Longitude Course Direction KTS MPH feet Rate Location/Type
01:09PM 34.6111 -118.0744 North 1 1 2,500  Level Los Angeles Center
01:11PM 34.6294 -118.0845 North  Level Estimated
01:11PM 34.6122 -118.0733 39° Northeast 2 2 2,500  Level Los Angeles Center
01:12PM 34.6167 -118.0742 351° North 8 9 2,500  Level Los Angeles Center
01:13PM 34.6236 -118.0742 360° North 16 18 2,500  Level Los Angeles Center
01:14PM 34.6289 -118.0744 358° North 19 22 2,500  Level Los Angeles Center
01:15PM 34.6314 -118.0756 340° North 14 16 2,500  Level Los Angeles Center
01:16PM 34.6311 -118.0750 121° Southeast 7 8 2,500  Level Los Angeles Center
01:17PM 34.6303 -118.0744 151° Southeast 3 3 2,500  Level Los Angeles Center
01:18PM 34.6306 -118.0747 321° Northwest 1 1 2,500  Level Los Angeles Center
01:21PM 34.6308 -118.0750 321° Northwest 1 1 2,500  Level Los Angeles Center
01:25PM 34.6311 -118.0769 280° West 2 2 2,500 180 Level Los Angeles Center
01:26PM 34.6336 -118.1372 273° West 113 130 3,700 1,080 Climbing Los Angeles Center
01:28PM 34.6908 -118.1522 348° North 203 234 4,800 1,560 Climbing Los Angeles Center
01:29PM 34.7400 -118.0831 49° Northeast 251 289 7,000 1,920 Climbing Los Angeles Center
01:30PM 34.7111 -117.9931 111° Southeast 275 316 8,800 1,560 Climbing Los Angeles Center
01:31PM 34.6756 -117.9011 115° Southeast 295 339 10,300 1,620 Climbing Los Angeles Center
01:32PM 34.6836 -117.7575 86° East 355 409 12,200 1,680 Climbing Los Angeles Center
01:33PM 34.6975 -117.6269 83° East 388 447 13,800 1,380 Climbing Los Angeles Center
01:34PM 34.7064 -117.4944 85° East 399 459 15,100 720 Climbing Los Angeles Center
01:35PM 34.7256 -117.3594 80° East 409 471 15,300 660 Climbing Los Angeles Center
01:36PM 34.7692 -117.2294 68° East 417 480 16,500 1,500 Climbing Los Angeles Center
01:37PM 34.8172 -117.0667 70° East 431 496 18,500 1,620 Climbing Los Angeles Center
01:38PM 34.8578 -116.9286 70° East 433 498 19,900 1,320 Climbing Los Angeles Center
01:39PM 34.9000 -116.7847 70° East 449 517 21,300 1,500 Climbing Los Angeles Center
01:40PM 34.9428 -116.6392 70° East 457 526 23,100 1,680 Climbing Los Angeles Center
01:41PM 35.0111 -116.5106 57° Northeast 468 539 24,800 1,440 Climbing Los Angeles Center
01:42PM 35.1200 -116.3753 45° Northeast 467 537 26,100 960 Climbing Los Angeles Center
01:43PM 35.2158 -116.2594 45° Northeast 478 550 26,800 660 Climbing Los Angeles Center
01:44PM 35.3119 -116.1358 46° Northeast 494 568 27,500 780 Climbing Los Angeles Center
01:45PM 35.4111 -116.0114 46° Northeast 506 582 28,500 960 Climbing Los Angeles Center
01:46PM 35.5111 -115.8839 46° Northeast 514 592 29,500 1,020 Climbing Los Angeles Center
01:47PM 35.6331 -115.7317 45° Northeast 515 593 30,700 720 Climbing Los Angeles Center
01:48PM 35.7336 -115.6050 46° Northeast 515 593 31,000 120 Climbing Los Angeles Center
01:49PM 35.8358 -115.4756 46° Northeast 524 603 31,000  Level Los Angeles Center
01:50PM 35.9375 -115.3442 46° Northeast 531 611 31,000  Level Los Angeles Center
01:51PM 36.0381 -115.2136 46° Northeast 531 611 31,000  Level Los Angeles Center
01:52PM 36.1106 -115.0272 64° Northeast 519 597 31,000  Level Los Angeles Center
01:53PM 36.1489 -114.8633 74° East 504 580 31,000  Level Los Angeles Center
01:54PM 36.1911 -114.6986 72° East 505 581 31,000  Level Los Angeles Center
01:55PM 36.2314 -114.5333 73° East 503 579 31,000  Level Los Angeles Center
01:57PM 36.2708 -114.3683 73° East 502 578 31,000  Level Los Angeles Center
01:58PM 36.3175 -114.1689 74° East 502 578 31,000 60 Level Los Angeles Center
01:59PM 36.3606 -114.0050 72° East 502 578 31,200 360 Climbing Los Angeles Center
02:00PM 36.4164 -113.8442 67° East 506 582 31,800 660 Climbing Los Angeles Center
02:01PM 36.4706 -113.6814 67° East 510 587 32,600 780 Climbing Los Angeles Center
02:02PM 36.5294 -113.5058 67° East 512 589 33,500 660 Climbing Los Angeles Center
02:03PM 36.5836 -113.3436 67° East 511 588 34,000 360 Climbing Los Angeles Center
02:04PM 36.6369 -113.1817 68° East 510 587 34,300 480 Climbing Los Angeles Center
02:05PM 36.7003 -112.9889 68° East 506 582 35,000 300 Climbing Los Angeles Center
02:06PM 36.7522 -112.8328 67° East 496 571 35,000  Level Los Angeles Center
02:07PM 36.8033 -112.6747 68° East 494 568 35,000  Level Los Angeles Center
02:08PM 36.8539 -112.5186 68° East 489 563 35,000  Level Los Angeles Center
02:09PM 36.9042 -112.3608 68° East 491 565 35,000  Level Los Angeles Center
02:10PM 36.9628 -112.1803 68° East 474 545 35,000  Level Los Angeles Center
02:11PM 37.0133 -112.0381 66° East 454 522 35,000  Level Los Angeles Center
02:12PM 37.0525 -111.9011 70° East 426 490 35,000  Level Los Angeles Center
02:13PM 37.0861 -111.7656 73° East 412 474 35,000  Level Los Angeles Center
02:14PM 37.1211 -111.6275 72° East 415 478 35,000  Level Los Angeles Center
02:15PM 37.0769 -111.5117 116° Southeast 380 437 35,000  Level Los Angeles Center
02:16PM 36.9756 -111.4603 158° South 336 387 35,000  Level Los Angeles Center
02:17PM 36.8881 -111.4397 169° South 324 373 35,000  Level Los Angeles Center
02:18PM 36.8014 -111.4192 169° South 318 366 35,000  Level Los Angeles Center
02:19PM 36.7153 -111.4003 170° South 316 364 35,000  Level Los Angeles Center
02:20PM 36.6292 -111.3828 171° South 314 361 35,000  Level Los Angeles Center
02:21PM 36.5422 -111.3628 170° South 316 364 35,000  Level Los Angeles Center
02:22PM 36.4344 -111.3392 170° South 324 373 35,000  Level Los Angeles Center
02:23PM 36.3467 -111.3189 169° South 323 372 35,000  Level Los Angeles Center
02:24PM 36.2589 -111.3019 171° South 320 368 35,000  Level Los Angeles Center
02:26PM 36.1708 -111.2853 171° South 320 368 35,000  Level Los Angeles Center
02:27PM 36.0828 -111.2736 174° South 319 367 35,000 -900 Level Los Angeles Center
02:28PM 36.0250 -111.1381 118° Southeast 369 425 33,200 -1,560 Descending Los Angeles Center
02:29PM 35.9778 -111.0122 115° Southeast 396 456 31,800 -1,440 Descending Los Angeles Center
02:30PM 35.8706 -111.0444 194° South 360 414 30,000 -1,740 Descending Denver Center
02:31PM 35.9050 -111.1578 291° West 377 434 27,900 -2,160 Descending Denver Center
02:32PM 36.0033 -111.2319 329° Northwest 407 468 25,600 -1,440 Descending Denver Center
02:33PM 36.1147 -111.2656 346° North 413 475 25,000 -300 Descending Denver Center
02:34PM 36.2125 -111.2875 350° North 369 425 25,000  Level Denver Center
02:35PM 36.3239 -111.3158 348° North 345 397 25,000  Level Denver Center
02:36PM 36.4192 -111.3344 351° North 346 398 25,000  Level Denver Center
02:37PM 36.5103 -111.3553 350° North 339 390 25,000  Level Denver Center
02:38PM 36.5997 -111.3744 350° North 330 380 25,000  Level Denver Center
02:39PM 36.6922 -111.3947 350° North 335 386 25,000  Level Denver Center
02:40PM 36.8014 -111.4181 350° North 334 384 25,000  Level Denver Center
02:41PM 36.9083 -111.4392 351° North 327 376 25,000 -420 Level Denver Center
02:42PM 36.9981 -111.4347 North 339 390 24,200 -1,260 Descending Denver Center
02:43PM 37.0650 -111.3422 48° Northeast 360 414 22,500 -1,620 Descending Denver Center
02:45PM 37.1558 -111.3044 18° North 376 433 20,900 -1,260 Descending Denver Center
02:46PM 37.1800 -111.3900 290° West 296 341 20,000 -480 Descending Denver Center
02:47PM 37.1219 -111.4503 220° Southwest 230 265 20,000  Level Denver Center
02:48PM 37.0611 -111.4725 196° South 230 265 20,000  Level Denver Center
02:49PM 36.9944 -111.4611 172° South 238 274 20,000  Level Denver Center
02:50PM 36.9281 -111.4478 171° South 241 277 20,000  Level Denver Center
02:51PM 36.8636 -111.4322 169° South 240 276 20,000  Level Denver Center
02:52PM 36.7983 -111.4167 169° South 237 273 20,000  Level Denver Center
02:53PM 36.7167 -111.3992 170° South 245 282 20,000  Level Denver Center
02:54PM 36.6475 -111.3828 169° South 249 287 20,000  Level Denver Center
02:55PM 36.5758 -111.3689 171° South 256 295 20,000  Level Denver Center
02:56PM 36.5203 -111.3558 169° South 257 296 20,000  Level Denver Center
02:57PM 36.4378 -111.3386 170° South 252 290 20,000  Level Denver Center
02:58PM 36.3692 -111.3233 170° South 251 289 20,000  Level Denver Center
02:59PM 36.3028 -111.3092 170° South 245 282 20,000  Level Denver Center
03:00PM 36.2253 -111.2928 170° South 237 273 20,000  Level Denver Center
03:01PM 36.1725 -111.2808 170° South 239 275 20,000  Level Denver Center
03:02PM 36.0900 -111.2617 169° South 247 284 20,000  Level Denver Center
03:03PM 36.0733 -111.1572 101° East 293 337 20,000  Level Denver Center
03:04PM 36.0308 -111.0928 129° Southeast 290 334 20,000  Level Denver Center
03:05PM 36.0239 -111.1606 263° West 274 315 20,000  Level Denver Center
03:06PM 36.0844 -111.2236 320° Northwest 285 328 20,000  Level Denver Center
03:07PM 36.1697 -111.2756 334° Northwest 287 330 20,000  Level Denver Center
03:08PM 36.2528 -111.2961 349° North 299 344 20,000  Level Denver Center
03:09PM 36.3347 -111.3128 351° North 300 345 20,000  Level Denver Center
03:10PM 36.4139 -111.3328 349° North 295 339 20,000  Level Denver Center
03:11PM 36.4956 -111.3497 351° North 296 341 20,000  Level Denver Center
03:12PM 36.5783 -111.3697 349° North 302 348 20,000  Level Denver Center
03:13PM 36.6800 -111.3917 350° North 306 352 20,000  Level Denver Center
03:14PM 36.7664 -111.4114 350° North 311 358 20,000  Level Denver Center
03:16PM 36.8561 -111.4297 351° North 322 371 20,000  Level Denver Center
03:17PM 36.9611 -111.4464 353° North 320 368 20,000 240 Level Denver Center
03:18PM 37.0161 -111.3525 54° Northeast 351 404 20,500 600 Climbing Denver Center
03:19PM 37.0428 -111.2214 76° East 387 445 21,300 960 Climbing Denver Center
03:20PM 37.0792 -111.0511 75° East 424 488 22,500 960 Climbing Denver Center
03:21PM 37.1114 -110.9003 75° East 448 516 23,400 960 Climbing Denver Center
03:22PM 37.1439 -110.7458 75° East 460 529 24,600 1,260 Climbing Denver Center
03:23PM 37.1769 -110.5903 75° East 463 533 26,000 1,260 Climbing Denver Center
03:24PM 37.2097 -110.4333 75° East 466 536 27,200 1,020 Climbing Denver Center
03:25PM 37.2431 -110.2747 75° East 471 542 28,200 960 Climbing Denver Center
03:26PM 37.2803 -110.0936 75° East 482 555 29,300 1,200 Climbing Denver Center
03:27PM 37.3183 -109.9067 76° East 493 567 30,700 1,200 Climbing Denver Center
03:28PM 37.3506 -109.7469 76° East 492 566 31,900 1,140 Climbing Denver Center
03:29PM 37.3833 -109.5883 75° East 489 563 33,100 1,140 Climbing Denver Center
03:30PM 37.4197 -109.4056 76° East 484 557 34,500 1,320 Climbing Denver Center
03:31PM 37.4603 -109.2000 76° East 475 547 36,100 1,200 Climbing Denver Center
03:32PM 37.4897 -109.0494 76° East 467 537 37,000 420 Climbing Denver Center
03:33PM 37.5247 -108.8711 76° East 468 539 37,000  Level Denver Center
03:34PM 37.5553 -108.7083 77° East 488 562 37,000  Level Denver Center
03:35PM 37.5856 -108.5489 76° East 489 563 37,000  Level Denver Center
03:36PM 37.6214 -108.3603 76° East 492 566 37,000  Level Denver Center
03:38PM 37.6525 -108.2000 76° East 492 566 37,000  Level Denver Center
03:39PM 37.6875 -108.0097 77° East 495 570 37,000  Level Denver Center
03:40PM 37.7181 -107.8464 77° East 499 574 37,000  Level Denver Center
03:41PM 37.7522 -107.6561 77° East 497 572 37,000  Level Denver Center
03:42PM 37.7828 -107.4944 77° East 494 568 37,000  Level Denver Center
03:43PM 37.8161 -107.3044 77° East 495 570 37,000  Level Denver Center
03:44PM 37.8475 -107.1306 77° East 492 566 37,000  Level Denver Center
03:45PM 37.8756 -106.9697 77° East 492 566 37,100  Climbing Denver Center
03:46PM 37.9083 -106.7811 78° East 491 565 37,000 -60 Descending Denver Center
03:47PM 37.9372 -106.6197 77° East 492 566 37,000  Level Denver Center
03:48PM 37.9667 -106.4417 78° East 491 565 37,000  Level Denver Center
03:49PM 37.9947 -106.2800 78° East 491 565 37,100  Climbing Denver Center
03:50PM 38.0261 -106.0900 78° East 494 568 37,000 -60 Descending Denver Center
03:51PM 38.0536 -105.9275 78° East 493 567 37,000  Level Denver Center
03:52PM 38.0842 -105.7375 78° East 492 566 37,000  Level Denver Center
03:53PM 38.1119 -105.5733 78° East 495 570 37,100  Climbing Denver Center
03:54PM 38.1436 -105.3817 78° East 496 571 37,100 -60 Level Denver Center
03:55PM 38.1689 -105.2211 79° East 486 559 37,000  Descending Denver Center
03:56PM 38.2003 -105.0344 78° East 483 556 37,100  Climbing Denver Center
03:57PM 38.2639 -104.8881 61° Northeast 488 562 37,000 -60 Descending Denver Center
03:58PM 38.3389 -104.7214 60° Northeast 495 570 37,000  Level Denver Center
03:59PM 38.4025 -104.5644 63° Northeast 497 572 37,000  Level Denver Center
04:00PM 38.4689 -104.4092 61° Northeast 496 571 37,000  Level Denver Center
04:01PM 38.5353 -104.2511 62° Northeast 501 577 37,000  Level Denver Center
04:02PM 38.6131 -104.1019 56° Northeast 494 568 37,000  Level Denver Center
04:03PM 38.7125 -103.9483 50° Northeast 499 574 37,000  Level Denver Center
04:04PM 38.7919 -103.8122 53° Northeast 498 573 37,000  Level Denver Center
04:05PM 38.8486 -103.6294 68° East 500 575 37,000  Level Denver Center
04:06PM 38.8706 -103.4592 81° East 497 572 37,000  Level Denver Center
04:08PM 38.8922 -103.2864 81° East 491 565 37,000  Level Denver Center
04:09PM 38.9156 -103.1128 80° East 490 564 37,000  Level Denver Center
04:10PM 38.9381 -102.9397 80° East 490 564 37,000  Level Denver Center
04:11PM 38.9600 -102.7656 81° East 489 563 37,000  Level Denver Center
04:12PM 38.9822 -102.5836 81° East 489 563 37,000  Level Denver Center
04:13PM 39.0103 -102.3617 81° East 492 566 37,000  Level Denver Center
04:14PM 39.0342 -102.1683 81° East 492 566 37,000  Level Denver Center
04:15PM 39.0550 -102.0025 81° East 492 566 37,000  Level Denver Center
04:16PM 39.0747 -101.8356 81° East 492 566 37,000  Level Denver Center
04:17PM 39.0950 -101.6686 81° East 490 564 37,000  Level Denver Center
04:18PM 39.1186 -101.4756 81° East 490 564 37,000  Level Denver Center
04:19PM 39.1406 -101.2814 82° East 490 564 37,000  Level Denver Center
04:20PM 39.1592 -101.1139 82° East 493 567 37,000  Level Denver Center
04:21PM 39.1819 -100.9194 81° East 494 568 37,000  Level Denver Center
04:22PM 39.1997 -100.7539 82° East 491 565 37,000  Level Denver Center
04:23PM 39.2211 -100.5589 82° East 492 566 37,000  Level Denver Center
04:24PM 39.2397 -100.3917 82° East 493 567 37,000  Level Denver Center
04:25PM 39.2603 -100.1958 82° East 495 570 37,000  Level Denver Center
04:26PM 39.2878 -100.0306 78° East 494 568 37,000  Level Denver Center
04:27PM 39.3192 -99.8378 78° East 493 567 37,000  Level Denver Center
04:28PM 39.3442 -99.6692 79° East 498 573 37,000  Level Denver Center
04:29PM 39.3739 -99.4764 79° East 496 571 37,000  Level Denver Center
04:32PM 39.4311 -99.0850 79° East 499 574 37,000  Level Denver Center
04:33PM 39.4597 -98.8947 79° East 496 571 37,000  Level Denver Center
04:34PM 39.4844 -98.7186 80° East 498 573 37,000  Level Denver Center
04:35PM 39.5089 -98.5422 80° East 499 574 37,000  Level Denver Center
04:36PM 39.5344 -98.3664 79° East 500 575 37,000  Level Denver Center
04:38PM 39.5769 -98.0592 80° East 498 573 37,000  Level Kansas City Center
04:39PM 39.6028 -97.8739 80° East 502 578 37,000  Level Kansas City Center
04:40PM 39.6244 -97.7081 80° East 497 572 37,000  Level Kansas City Center
04:40PM 39.6372 -97.6100 80° East 498 573 37,000  Level Minneapolis Center
04:41PM 39.6642 -97.3975 81° East 498 573 37,000  Level Minneapolis Center
04:42PM 39.6872 -97.2189 80° East 502 578 37,000  Level Minneapolis Center
04:43PM 39.7017 -97.1122 80° East 502 578 37,000  Level Minneapolis Center
04:44PM 39.7211 -96.9600 81° East 503 579 37,000  Level Kansas City Center
04:45PM 39.7442 -96.7728 81° East 503 579 37,000  Level Kansas City Center
04:46PM 39.7678 -96.5850 81° East 502 578 37,000  Level Kansas City Center
04:47PM 39.7903 -96.3972 81° East 502 578 37,000  Level Kansas City Center
04:48PM 39.8128 -96.2086 81° East 504 580 37,000  Level Kansas City Center
04:49PM 39.8344 -96.0364 81° East 502 578 37,000 -180 Level Kansas City Center
04:50PM 39.8547 -95.8633 81° East 502 578 36,700 -600 Descending Kansas City Center
04:51PM 39.8847 -95.6664 79° East 495 570 35,800 -900 Descending Kansas City Center
04:51PM 39.8986 -95.6153 70° East 492 566 35,500 -960 Descending Minneapolis Center
04:52PM 39.9483 -95.4492 69° East 491 565 34,500 -1,080 Descending Minneapolis Center
04:53PM 39.9822 -95.3192 71° East 489 563 33,700 -1,020 Descending Kansas City Center
04:54PM 40.0236 -95.1564 72° East 491 565 32,800 -1,020 Descending Kansas City Center
04:55PM 40.0767 -94.9692 70° East 491 565 31,600 -1,140 Descending Kansas City Center
04:56PM 40.1189 -94.8078 71° East 490 564 30,600 -1,020 Descending Kansas City Center
04:57PM 40.1353 -94.7461 71° East 489 563 30,200 -1,020 Descending Minneapolis Center
04:58PM 40.1817 -94.5814 70° East 487 560 29,200 -1,020 Descending Minneapolis Center
04:59PM 40.2256 -94.4111 71° East 490 564 28,200 -1,020 Descending Minneapolis Center
04:59PM 40.2569 -94.3008 70° East 488 562 27,500 -1,140 Descending Kansas City Center
05:00PM 40.3097 -94.1200 69° East 482 555 26,300 -1,260 Descending Kansas City Center
05:01PM 40.3553 -93.9644 69° East 470 541 25,000 -1,380 Descending Kansas City Center
05:02PM 40.3761 -93.9078 64° Northeast 463 533 24,400 -1,500 Descending Minneapolis Center
05:03PM 40.4219 -93.7717 66° East 437 503 22,900 -1,440 Descending Minneapolis Center
05:04PM 40.4625 -93.6397 68° East 413 475 21,500 -960 Descending Minneapolis Center
05:05PM 40.4878 -93.4867 78° East 384 442 21,000 -240 Descending Minneapolis Center
05:06PM 40.4978 -93.3694 84° East 330 380 21,000  Level Minneapolis Center
05:07PM 40.5006 -93.3006 87° East 320 368 21,000  Level Kansas City Center
05:08PM 40.5056 -93.1844 87° East 320 368 21,000  Level Kansas City Center
05:09PM 40.5067 -93.0694 89° East 318 366 21,000  Level Kansas City Center
05:10PM 40.5075 -92.9375 89° East 325 374 21,000  Level Kansas City Center
05:11PM 40.5097 -92.8258 88° East 322 371 21,000  Level Kansas City Center
05:12PM 40.4758 -92.7067 110° East 320 368 21,000  Level Kansas City Center
05:13PM 40.3961 -92.6539 153° Southeast 328 377 21,000  Level Kansas City Center
05:14PM 40.3133 -92.6308 168° South 305 351 21,000  Level Kansas City Center
05:15PM 40.2367 -92.6125 170° South 299 344 21,000  Level Kansas City Center
05:16PM 40.1411 -92.5881 169° South 303 349 21,000  Level Kansas City Center
05:17PM 40.0536 -92.5656 169° South 302 348 21,000  Level Kansas City Center
05:18PM 39.9806 -92.5475 169° South 302 348 21,000  Level Kansas City Center
05:19PM 39.8975 -92.5278 170° South 303 349 21,000  Level Kansas City Center
05:20PM 39.7983 -92.5036 169° South 304 350 21,000  Level Kansas City Center
05:21PM 39.7136 -92.4836 170° South 307 353 21,000  Level Kansas City Center
05:22PM 39.6300 -92.4642 170° South 307 353 21,000  Level Kansas City Center
05:23PM 39.5464 -92.4447 170° South 307 353 21,000  Level Kansas City Center
05:24PM 39.4619 -92.4247 170° South 308 354 21,000 -300 Level Kansas City Center
05:25PM 39.3769 -92.4589 197° South 287 330 20,400 -1,020 Descending Kansas City Center
05:26PM 39.3194 -92.5328 225° Southwest 299 344 18,900 -1,260 Descending Kansas City Center
05:27PM 39.2481 -92.4786 150° Southeast 311 358 17,800 -1,380 Descending Kansas City Center
05:28PM 39.2839 -92.3842 64° Northeast 326 375 16,100 -900 Descending Kansas City Center
05:29PM 39.3542 -92.3983 351° North 280 322 16,000 -60 Descending Kansas City Center
05:30PM 39.4294 -92.4175 349° North 244 281 16,000  Level Kansas City Center
05:31PM 39.4950 -92.4336 349° North 239 275 16,000  Level Kansas City Center
05:32PM 39.5633 -92.4494 350° North 248 285 16,000  Level Kansas City Center
05:33PM 39.6314 -92.4647 350° North 249 287 16,000  Level Kansas City Center
05:34PM 39.6967 -92.4806 349° North 243 280 16,000  Level Kansas City Center
05:35PM 39.7619 -92.4956 350° North 240 276 16,000  Level Kansas City Center
05:36PM 39.8375 -92.5131 350° North 233 268 16,100  Climbing Kansas City Center
05:38PM 39.9003 -92.5289 349° North 230 265 16,100  Level Kansas City Center
05:39PM 39.9617 -92.5433 350° North 228 262 16,100  Level Kansas City Center
05:40PM 40.0233 -92.5569 350° North 225 259 16,100  Level Kansas City Center
05:41PM 40.0864 -92.5719 350° North 228 262 16,100  Level Kansas City Center
05:42PM 40.1622 -92.5903 350° North 232 267 16,100  Level Kansas City Center
05:43PM 40.2275 -92.6058 350° North 235 270 16,100  Level Kansas City Center
05:44PM 40.2969 -92.6233 349° North 239 275 16,100  Level Kansas City Center
05:45PM 40.3656 -92.6381 351° North 242 278 16,100 -60 Level Kansas City Center
05:46PM 40.4211 -92.6744 333° Northwest 237 273 16,000 -780 Descending Kansas City Center
05:47PM 40.4339 -92.7572 281° West 235 270 14,600 -1,380 Descending Kansas City Center
05:48PM 40.4886 -92.7703 350° North 268 308 13,200 -1,560 Descending Kansas City Center
05:49PM 40.4542 -92.6664 114° Southeast 287 330 11,400 -1,020 Descending Kansas City Center
05:50PM 40.3853 -92.6469 168° South 259 298 11,100 -180 Descending Kansas City Center
05:51PM 40.3214 -92.6308 169° South 243 280 11,100  Level Kansas City Center
05:52PM 40.2578 -92.6156 170° South 243 280 11,100  Level Kansas City Center
05:53PM 40.1750 -92.5944 169° South 253 291 11,100  Level Kansas City Center
05:54PM 40.1086 -92.5797 170° South 249 287 11,100  Level Kansas City Center
05:55PM 40.0497 -92.5653 169° South 231 266 11,100  Level Kansas City Center
05:56PM 39.9961 -92.5536 171° South 206 237 11,100  Level Kansas City Center
05:57PM 39.9314 -92.5367 169° South 233 268 11,100  Level Kansas City Center
05:58PM 39.8506 -92.5169 169° South 246 283 11,100 -60 Level Kansas City Center
05:59PM 39.7858 -92.5019 170° South 240 276 11,000 -60 Descending Kansas City Center
06:00PM 39.7211 -92.4864 170° South 239 275 11,000  Level Kansas City Center
06:01PM 39.6567 -92.4717 170° South 237 273 11,000  Level Kansas City Center
06:02PM 39.5919 -92.4553 169° South 238 274 11,000  Level Kansas City Center
06:03PM 39.5139 -92.4381 170° South 239 275 11,000 -60 Level Kansas City Center
06:04PM 39.4478 -92.4219 169° South 241 277 10,900 -540 Descending Kansas City Center
06:05PM 39.3806 -92.4156 176° South 243 280 9,900 -1,020 Descending Kansas City Center
06:06PM 39.3656 -92.4919 256° West 228 262 8,800 -960 Descending Kansas City Center
06:08PM 39.4081 -92.5453 316° Northwest 216 249 7,900 -1,140 Descending Kansas City Center
06:09PM 39.4578 -92.5997 320° Northwest 201 231 6,600 -1,200 Descending Kansas City Center
06:10PM 39.4978 -92.6400 322° Northwest 189 217 5,500 -1,020 Descending Kansas City Center
06:11PM 39.5353 -92.6853 317° Northwest 184 212 4,500 -960 Descending Kansas City Center
06:12PM 39.5711 -92.6617 27° Northeast 197 227 3,500 -840 Descending Kansas City Center
06:13PM 39.5753 -92.6006 85° East 184 212 2,800 -480 Descending Kansas City Center
06:14PM 39.5414 -92.5483 130° Southeast 166 191 2,500 -180 Descending Kansas City Center
06:15PM 39.5147 -92.5061 129° Southeast 159 183 2,500 -360 Level Kansas City Center
06:16PM 39.4864 -92.4611 129° Southeast 154 177 1,800 -60 Descending Kansas City Center
06:18PM 39.4436 -92.3789 124° Southeast 198 228 2,400 540 Climbing Chicago Center
06:19PM 39.4892 -92.3333 38° Northeast 248 285 3,500 1,200 Climbing Chicago Center
06:20PM 39.5608 -92.3269 North 256 295 5,000 1,380 Climbing Chicago Center
06:21PM 39.6300 -92.3011 16° North 257 296 6,400 1,320 Climbing Chicago Center
06:22PM 39.7031 -92.2739 16° North 265 305 7,800 1,500 Climbing Chicago Center
06:23PM 39.7903 -92.2425 15° North 271 312 9,600 1,500 Climbing Chicago Center
06:24PM 39.8636 -92.2167 15° North 274 315 10,900 720 Climbing Chicago Center
06:25PM 39.9439 -92.1869 16° North 293 337 11,100 60 Climbing Chicago Center
06:26PM 40.0294 -92.1572 15° North 317 365 11,100  Level Chicago Center
06:27PM 40.1289 -92.1214 15° North 314 361 11,100 -60 Level Chicago Center
06:28PM 40.2103 -92.0925 15° North 309 356 11,000 -60 Descending Chicago Center
06:29PM 40.2903 -92.0633 16° North 304 350 11,000  Level Chicago Center
06:30PM 40.3697 -92.0339 16° North 302 348 11,000  Level Chicago Center
06:31PM 40.4492 -92.0056 15° North 300 345 11,000  Level Chicago Center
06:32PM 40.5450 -91.9706 16° North 300 345 11,000  Level Chicago Center
06:33PM 40.6250 -91.9425 15° North 301 346 11,000  Level Chicago Center
06:34PM 40.7044 -91.9119 16° North 300 345 11,000  Level Chicago Center
06:35PM 40.7839 -91.8831 15° North 299 344 11,000  Level Chicago Center
06:36PM 40.8803 -91.8483 15° North 301 346 11,000  Level Chicago Center
06:37PM 40.9606 -91.8178 16° North 301 346 11,000  Level Chicago Center
06:38PM 41.0408 -91.7889 15° North 302 348 11,000  Level Chicago Center
06:39PM 41.1211 -91.7592 16° North 301 346 11,000  Level Chicago Center
06:40PM 41.2011 -91.7303 15° North 300 345 11,000  Level Chicago Center
06:41PM 41.2875 -91.6986 15° North 300 345 11,000  Level Chicago Center
06:43PM 41.3672 -91.6678 16° North 301 346 11,000  Level Chicago Center
06:44PM 41.4639 -91.6325 15° North 302 348 11,000  Level Chicago Center
06:45PM 41.5417 -91.5986 18° North 298 343 11,100  Climbing Chicago Center
06:46PM 41.6108 -91.5292 37° Northeast 308 354 11,100  Level Chicago Center
06:47PM 41.6803 -91.4647 35° Northeast 307 353 11,100  Level Chicago Center
06:48PM 41.7514 -91.4058 32° Northeast 304 350 11,100  Level Chicago Center
06:49PM 41.8356 -91.3294 34° Northeast 307 353 11,100  Level Chicago Center
06:50PM 41.9058 -91.2675 33° Northeast 306 352 11,100  Level Chicago Center
06:51PM 41.9775 -91.2081 32° Northeast 306 352 11,100  Level Chicago Center
06:52PM 42.0458 -91.1444 35° Northeast 302 348 11,100 -60 Level Chicago Center
06:53PM 42.1167 -91.0811 34° Northeast 307 353 11,000 -60 Descending Chicago Center
06:54PM 42.2011 -91.0108 32° Northeast 302 348 11,000  Level Chicago Center
06:55PM 42.2672 -90.9483 35° Northeast 295 339 11,000  Level Chicago Center
06:56PM 42.3358 -90.8903 32° Northeast 294 338 11,000  Level Chicago Center
06:57PM 42.4039 -90.8306 33° Northeast 295 339 11,000  Level Chicago Center
06:58PM 42.4689 -90.7692 35° Northeast 291 335 11,000  Level Chicago Center
06:59PM 42.5489 -90.7019 32° Northeast 285 328 11,000  Level Chicago Center
07:00PM 42.6139 -90.6419 34° Northeast 285 328 11,000  Level Chicago Center
07:01PM 42.6778 -90.5828 34° Northeast 283 326 11,000  Level Chicago Center
07:02PM 42.7433 -90.5261 32° Northeast 282 325 11,000  Level Chicago Center
07:03PM 42.8081 -90.4658 34° Northeast 283 326 11,000  Level Chicago Center
07:04PM 42.8867 -90.3981 32° Northeast 282 325 11,000  Level Chicago Center
07:05PM 42.9508 -90.3375 35° Northeast 282 325 11,000  Level Chicago Center
07:06PM 43.0142 -90.2819 33° Northeast 276 318 11,000  Level Chicago Center
07:07PM 43.0778 -90.2225 34° Northeast 278 320 11,000  Level Chicago Center
07:08PM 43.1522 -90.1519 35° Northeast 277 319 11,000  Level Chicago Center
07:09PM 43.2167 -90.0956 33° Northeast 275 316 11,000  Level Chicago Center
07:10PM 43.2797 -90.0350 35° Northeast 276 318 11,000  Level Chicago Center
07:11PM 43.3467 -89.9794 31° Northeast 277 319 11,000  Level Chicago Center
07:12PM 43.4086 -89.9208 34° Northeast 273 314 11,000  Level Chicago Center
07:14PM 43.4733 -89.8636 33° Northeast 274 315 11,000  Level Chicago Center
07:15PM 43.5478 -89.7978 33° Northeast 273 314 11,000 60 Level Chicago Center
07:16PM 43.6158 -89.7294 36° Northeast 308 354 11,200 1,620 Climbing Chicago Center
07:17PM 43.6642 -89.6058 62° Northeast 364 419 14,400 3,000 Climbing Chicago Center
07:18PM 43.7175 -89.4944 56° Northeast 352 405 17,500 2,280 Climbing Chicago Center
07:19PM 43.8189 -89.5081 354° North 323 372 19,800 1,920 Climbing Minneapolis Center
07:20PM 43.8256 -89.6317 274° West 342 394 22,100 2,340 Climbing Minneapolis Center
07:21PM 43.7089 -89.6931 201° Southwest 419 482 24,700 2,460 Climbing Minneapolis Center
07:22PM 43.6106 -89.7039 185° South 431 496 26,500 2,040 Climbing Chicago Center
07:23PM 43.5247 -89.7919 217° Southwest 391 450 28,400 1,740 Climbing Chicago Center
07:24PM 43.4317 -89.8772 214° Southwest 400 460 30,100 1,620 Climbing Chicago Center
07:24PM 43.3858 -89.9192 214° Southwest 399 459 30,900 1,500 Climbing Minneapolis Center
07:25PM 43.3381 -89.9628 214° Southwest 404 465 31,700 1,380 Climbing Chicago Center
07:26PM 43.2439 -90.0533 215° Southwest 412 474 33,100 1,440 Climbing Chicago Center
07:27PM 43.1311 -90.1578 214° Southwest 419 482 34,700 1,560 Climbing Chicago Center
07:28PM 43.0378 -90.2450 214° Southwest 421 484 36,300 1,500 Climbing Chicago Center
07:29PM 42.9439 -90.3322 214° Southwest 413 475 37,900 780 Climbing Chicago Center
07:30PM 42.8486 -90.4197 214° Southwest 414 476 38,000  Climbing Chicago Center
07:31PM 42.7547 -90.5067 214° Southwest 411 473 38,000  Level Chicago Center
07:32PM 42.6439 -90.6078 214° Southwest 402 463 38,000  Level Chicago Center
07:33PM 42.5531 -90.6914 214° Southwest 396 456 38,000  Level Chicago Center
07:34PM 42.4614 -90.7750 214° Southwest 391 450 38,000  Level Chicago Center
07:35PM 42.3697 -90.8561 213° Southwest 400 460 38,000  Level Chicago Center
07:36PM 42.2775 -90.9400 214° Southwest 400 460 38,000  Level Chicago Center
07:37PM 42.1836 -91.0250 214° Southwest 406 467 38,000  Level Chicago Center
07:38PM 42.0914 -91.1075 214° Southwest 402 463 38,000  Level Chicago Center
07:39PM 41.9800 -91.2078 214° Southwest 402 463 38,000  Level Chicago Center
07:40PM 41.8858 -91.2892 213° Southwest 403 464 38,000  Level Chicago Center
07:41PM 41.7936 -91.3722 214° Southwest 402 463 38,000  Level Chicago Center
07:42PM 41.7000 -91.4547 213° Southwest 404 465 38,000  Level Chicago Center
07:43PM 41.6033 -91.5389 213° Southwest 415 478 38,000 240 Level Chicago Center
07:44PM 41.5022 -91.6608 222° Southwest 399 459 38,600 600 Climbing Chicago Center
07:46PM 41.4675 -91.7967 251° West 385 443 39,300 660 Climbing Chicago Center
07:47PM 41.4506 -91.9381 261° West 385 443 40,000 300 Climbing Chicago Center
07:48PM 41.4325 -92.0781 260° West 387 445 40,000  Level Chicago Center
07:49PM 41.4131 -92.2233 260° West 397 457 40,000  Level Chicago Center
07:50PM 41.3914 -92.3869 260° West 397 457 40,000  Level Chicago Center
07:51PM 41.3711 -92.5317 259° West 400 460 40,000  Level Chicago Center
07:52PM 41.3517 -92.6742 260° West 397 457 40,000  Level Chicago Center
07:52PM 41.3483 -92.7044 262° West 397 457 40,000  Level Minneapolis Center
07:53PM 41.3239 -92.8775 259° West 399 459 40,000  Level Minneapolis Center
07:54PM 41.3053 -93.0186 260° West 395 455 40,000  Level Minneapolis Center
07:55PM 41.2847 -93.1592 259° West 391 450 40,000  Level Minneapolis Center
07:56PM 41.2650 -93.2989 259° West 390 449 40,000  Level Minneapolis Center
07:57PM 41.2444 -93.4389 259° West 390 449 40,000  Level Minneapolis Center
07:58PM 41.2225 -93.6011 260° West 378 435 40,000  Level Minneapolis Center
07:59PM 41.2003 -93.7444 258° West 386 444 40,000  Level Minneapolis Center
08:00PM 41.1778 -93.8869 258° West 393 452 40,000  Level Minneapolis Center
08:01PM 41.1572 -94.0253 259° West 392 451 40,000  Level Minneapolis Center
08:02PM 41.1378 -94.1653 260° West 389 448 40,000  Level Minneapolis Center
08:03PM 41.1186 -94.3014 259° West 386 444 40,000  Level Minneapolis Center
08:04PM 41.0922 -94.4700 258° West 391 450 40,000  Level Minneapolis Center
08:05PM 41.0686 -94.6181 258° West 395 455 40,000  Level Minneapolis Center
08:06PM 41.0458 -94.7581 258° West 392 451 40,000  Level Minneapolis Center
08:07PM 41.0250 -94.8989 259° West 391 450 40,000  Level Minneapolis Center
08:08PM 41.0022 -95.0406 258° West 392 451 40,000  Level Minneapolis Center
08:09PM 40.9789 -95.1836 258° West 395 455 40,000  Level Minneapolis Center
08:10PM 40.9572 -95.3244 259° West 392 451 40,000  Level Minneapolis Center
08:12PM 40.9336 -95.4653 258° West 391 450 40,000  Level Minneapolis Center
08:13PM 40.9106 -95.6061 258° West 391 450 40,000  Level Minneapolis Center
08:14PM 40.8828 -95.7744 258° West 390 449 40,000  Level Minneapolis Center
08:15PM 40.8592 -95.9156 258° West 391 450 40,000  Level Minneapolis Center
08:16PM 40.8347 -96.0575 257° West 393 452 40,000  Level Minneapolis Center
08:17PM 40.8108 -96.2003 258° West 395 455 40,000  Level Minneapolis Center
08:18PM 40.7869 -96.3428 258° West 395 455 40,000  Level Minneapolis Center
08:19PM 40.7628 -96.4853 257° West 397 457 40,000  Level Minneapolis Center
08:20PM 40.7381 -96.6283 257° West 399 459 40,000  Level Minneapolis Center
08:21PM 40.7128 -96.7714 257° West 399 459 40,000  Level Minneapolis Center
08:22PM 40.6875 -96.9147 257° West 401 461 40,000  Level Minneapolis Center
08:23PM 40.6617 -97.0594 257° West 404 465 40,000  Level Minneapolis Center
08:24PM 40.6308 -97.2314 257° West 403 464 40,000  Level Minneapolis Center
08:25PM 40.6056 -97.3694 256° West 403 464 40,000  Level Minneapolis Center
08:26PM 40.5789 -97.5147 256° West 406 467 40,000  Level Minneapolis Center
08:27PM 40.5531 -97.6578 257° West 403 464 40,000  Level Minneapolis Center
08:28PM 40.5267 -97.8025 257° West 405 466 40,000  Level Minneapolis Center
08:29PM 40.4992 -97.9461 256° West 405 466 40,000  Level Minneapolis Center
08:30PM 40.4728 -98.0914 257° West 406 467 40,000  Level Minneapolis Center
08:31PM 40.4397 -98.2658 256° West 408 470 40,000  Level Minneapolis Center
08:32PM 40.4119 -98.4108 256° West 408 470 40,000  Level Minneapolis Center
08:33PM 40.3839 -98.5567 256° West 409 471 40,000  Level Minneapolis Center
08:34PM 40.3550 -98.7036 256° West 411 473 40,000  Level Minneapolis Center
08:35PM 40.3272 -98.8497 256° West 412 474 40,000  Level Minneapolis Center
08:36PM 40.3156 -98.9067 255° West 409 471 40,000  Level Denver Center
08:37PM 40.2869 -99.0539 256° West 412 474 40,000  Level Denver Center
08:38PM 40.2581 -99.1983 255° West 410 472 40,000  Level Denver Center
08:39PM 40.2289 -99.3439 255° West 411 473 40,000  Level Denver Center
08:40PM 40.2000 -99.4903 256° West 414 476 40,000  Level Denver Center
08:41PM 40.1647 -99.6628 255° West 410 472 40,000  Level Denver Center
08:42PM 40.1350 -99.8081 255° West 413 475 40,000  Level Denver Center
08:43PM 40.1036 -99.9592 255° West 414 476 40,000  Level Denver Center
08:44PM 40.0750 -100.0967 255° West 410 472 40,000  Level Denver Center
08:45PM 40.0417 -100.2586 255° West 412 474 40,000  Level Denver Center
08:46PM 40.0122 -100.3981 255° West 414 476 40,000  Level Denver Center
08:47PM 39.9881 -100.5133 255° West 412 474 40,000  Level Denver Center
08:48PM 39.9478 -100.6989 254° West 416 479 40,000  Level Denver Center
08:49PM 39.9178 -100.8386 254° West 418 481 40,000  Level Denver Center
08:50PM 39.8825 -101.0019 254° West 419 482 40,000  Level Denver Center
08:51PM 39.8519 -101.1422 254° West 420 483 40,000  Level Denver Center
08:52PM 39.8161 -101.3078 254° West 424 488 40,000  Level Denver Center
08:53PM 39.7847 -101.4481 254° West 423 487 40,000  Level Denver Center
08:54PM 39.7542 -101.5883 254° West 422 486 40,000  Level Denver Center
08:55PM 39.7172 -101.7519 254° West 422 486 40,000  Level Denver Center
08:56PM 39.6858 -101.8928 254° West 423 487 40,000  Level Denver Center
08:57PM 39.6492 -102.0564 254° West 424 488 40,000  Level Denver Center
08:58PM 39.6172 -102.1944 253° West 420 483 40,000  Level Denver Center
08:59PM 39.5808 -102.3597 254° West 426 490 40,000  Level Denver Center
09:00PM 39.5481 -102.4975 253° West 426 490 40,000  Level Denver Center
09:01PM 39.5125 -102.6458 253° West 428 493 40,000  Level Denver Center
09:02PM 39.4803 -102.7925 254° West 420 483 40,000  Level Denver Center
09:03PM 39.4450 -102.9381 253° West 418 481 40,000  Level Denver Center
09:04PM 39.4156 -103.0583 252° West 418 481 40,000  Level Denver Center
09:05PM 39.3697 -103.2514 253° West 417 480 40,000  Level Denver Center
09:06PM 39.3350 -103.3972 253° West 422 486 40,000  Level Denver Center
09:08PM 39.3000 -103.5422 253° West 420 483 40,000  Level Denver Center
09:09PM 39.2636 -103.6906 252° West 427 491 40,000  Level Denver Center
09:10PM 39.2275 -103.8375 252° West 427 491 40,000  Level Denver Center
09:11PM 39.1925 -103.9839 253° West 423 487 40,000  Level Denver Center
09:12PM 39.1558 -104.1317 252° West 427 491 40,000  Level Denver Center
09:13PM 39.1197 -104.2767 252° West 421 484 40,000  Level Denver Center
09:14PM 39.0772 -104.4472 252° West 422 486 40,000  Level Denver Center
09:15PM 39.0394 -104.5942 252° West 426 490 40,000  Level Denver Center
09:16PM 39.0025 -104.7369 252° West 416 479 40,000  Level Denver Center
09:17PM 38.9669 -104.8806 252° West 416 479 40,000 -60 Level Denver Center
09:18PM 38.9308 -105.0208 252° West 410 472 39,900  Descending Denver Center
09:19PM 38.8947 -105.1617 252° West 411 473 40,000  Climbing Denver Center
09:20PM 38.8564 -105.3022 251° West 413 475 40,000  Level Denver Center
09:21PM 38.8208 -105.4436 252° West 414 476 40,000  Level Denver Center
09:22PM 38.7833 -105.5836 251° West 410 472 40,000  Level Denver Center
09:23PM 38.7458 -105.7258 251° West 416 479 40,000  Level Denver Center
09:24PM 38.7025 -105.8903 251° West 414 476 40,000  Level Denver Center
09:25PM 38.6650 -106.0308 251° West 414 476 40,000  Level Denver Center
09:26PM 38.6275 -106.1708 251° West 413 475 40,000  Level Denver Center
09:27PM 38.5914 -106.3011 251° West 412 474 40,000  Level Denver Center
09:28PM 38.5536 -106.4411 251° West 413 475 40,000  Level Denver Center
09:29PM 38.5150 -106.5803 251° West 414 476 40,000  Level Denver Center
09:30PM 38.4697 -106.7458 251° West 411 473 40,000  Level Denver Center
09:31PM 38.4308 -106.8847 250° West 415 478 40,000  Level Denver Center
09:32PM 38.3922 -107.0233 250° West 413 475 40,000  Level Denver Center
09:33PM 38.3542 -107.1639 251° West 415 478 40,000  Level Denver Center
09:34PM 38.3108 -107.3153 250° West 418 481 40,000  Level Denver Center
09:35PM 38.2728 -107.4497 250° West 421 484 40,000  Level Denver Center
09:36PM 38.2292 -107.6042 250° West 417 480 40,000  Level Denver Center
09:37PM 38.1917 -107.7361 250° West 415 478 40,000  Level Denver Center
09:38PM 38.1469 -107.8908 250° West 417 480 40,000  Level Denver Center
09:40PM 38.1097 -108.0214 250° West 413 475 40,000  Level Denver Center
09:41PM 38.0700 -108.1608 250° West 408 470 40,000  Level Denver Center
09:42PM 38.0258 -108.3114 250° West 407 468 40,000  Level Denver Center
09:43PM 37.9883 -108.4386 250° West 405 466 40,000  Level Denver Center
09:44PM 37.9497 -108.5661 249° West 405 466 40,000  Level Denver Center
09:45PM 37.9064 -108.7136 250° West 402 463 40,000  Level Denver Center
09:46PM 37.8683 -108.8431 250° West 406 467 40,000  Level Denver Center
09:47PM 37.8239 -108.9919 249° West 407 468 40,000  Level Denver Center
09:48PM 37.7850 -109.1189 249° West 405 466 40,000  Level Denver Center
09:49PM 37.7406 -109.2689 250° West 409 471 40,000  Level Denver Center
09:50PM 37.7019 -109.3950 249° West 405 466 40,000  Level Denver Center
09:51PM 37.6567 -109.5439 249° West 407 468 40,000  Level Denver Center
09:52PM 37.6181 -109.6700 249° West 403 464 40,000  Level Denver Center
09:53PM 37.5725 -109.8175 249° West 406 467 40,000 -60 Level Denver Center
09:54PM 37.5331 -109.9447 249° West 408 470 39,900  Descending Denver Center
09:55PM 37.4861 -110.0928 248° West 409 471 40,000  Climbing Denver Center
09:56PM 37.4483 -110.2169 249° West 407 468 40,000  Level Denver Center
09:57PM 37.4067 -110.3506 249° West 409 471 40,000  Level Denver Center
09:58PM 37.3642 -110.4839 248° West 410 472 40,000  Level Denver Center
09:59PM 37.3133 -110.6442 248° West 413 475 40,000  Level Denver Center
10:00PM 37.2719 -110.7758 248° West 407 468 40,000  Level Denver Center
10:01PM 37.2292 -110.9072 248° West 405 466 40,000 -60 Level Denver Center
10:02PM 37.1867 -111.0400 248° West 409 471 39,900  Descending Denver Center
10:03PM 37.1436 -111.1728 248° West 412 474 40,000  Climbing Denver Center
10:04PM 37.1008 -111.3058 248° West 411 473 40,000  Level Denver Center
10:06PM 37.0094 -111.5892 248° West 394 453 40,000  Level Denver Center
10:07PM 36.9683 -111.7161 248° West 392 451 40,000  Level Denver Center
10:08PM 36.9250 -111.8442 247° West 397 457 40,000  Level Denver Center
10:10PM 36.8822 -111.9714 247° West 397 457 40,000  Level Denver Center
10:11PM 36.8389 -112.0986 247° West 396 456 40,000  Level Denver Center
10:12PM 36.7881 -112.2508 247° West 396 456 40,000  Level Denver Center